Time;durP1;ratioP1;P1;durP2;ratioP2;P2;SDS_P1;SDS_P2;PMS_P1;PMS_P2;Temp;Humidity;BMP_temperature;BMP_pressure;BME280_temperature;BME280_humidity;BME280_pressure;Samples;Min_cycle;Max_cycle;Signal;HPM_P1;HPM_P2
2023/06/09 00:00:38;;;;;;;15.00;13.20;;;;;;;15.76;97.80;96472.07;108819;1274;22563;-89
2023/06/09 00:03:32;;;;;;;15.70;12.90;;;;;;;15.73;97.33;96472.95;108839;1276;22627;-89
2023/06/09 00:06:08;;;;;;;16.50;13.00;;;;;;;15.71;97.15;96475.84;108826;1276;22514;-88
2023/06/09 00:08:42;;;;;;;13.60;12.20;;;;;;;15.69;96.96;96469.27;108719;1274;108054;-88
2023/06/09 00:11:17;;;;;;;13.00;11.30;;;;;;;15.69;96.82;96471.48;108850;1274;22563;-89
2023/06/09 00:13:51;;;;;;;13.80;12.40;;;;;;;15.67;96.83;96468.40;108845;1276;22543;-89
2023/06/09 00:16:24;;;;;;;14.40;12.90;;;;;;;15.70;97.23;96474.17;108851;1276;22523;-89
2023/06/09 00:19:01;;;;;;;13.40;12.00;;;;;;;15.70;97.16;96470.52;108801;1274;44042;-89
2023/06/09 00:21:50;;;;;;;12.90;11.40;;;;;;;15.68;96.69;96473.55;108814;1276;22520;-89
2023/06/09 00:24:23;;;;;;;13.10;11.70;;;;;;;15.65;96.52;96473.97;108788;1269;22517;-89
2023/06/09 00:26:56;;;;;;;12.80;11.50;;;;;;;15.61;96.31;96473.00;108848;1274;22638;-89
2023/06/09 00:29:32;;;;;;;13.60;11.90;;;;;;;15.60;96.53;96467.15;108805;1276;61831;-89
2023/06/09 00:32:08;;;;;;;14.20;12.80;;;;;;;15.60;96.71;96467.09;108854;1274;25370;-89
2023/06/09 00:34:46;;;;;;;13.70;12.20;;;;;;;15.61;96.66;96467.55;108866;1276;22636;-90
2023/06/09 00:37:18;;;;;;;13.70;12.30;;;;;;;15.41;95.78;96460.63;108789;1276;64595;-90
2023/06/09 00:39:49;;;;;;;13.00;11.70;;;;;;;15.19;96.04;96460.44;108811;1276;25344;-89
2023/06/09 00:42:20;;;;;;;14.40;11.30;;;;;;;15.08;96.77;96459.63;108861;1276;22520;-89
2023/06/09 00:44:52;;;;;;;13.80;12.20;;;;;;;15.00;97.28;96459.16;108805;1276;23244;-90
2023/06/09 00:47:24;;;;;;;15.50;12.90;;;;;;;14.99;97.92;96461.35;108818;1269;46565;-90
2023/06/09 00:49:55;;;;;;;14.20;12.60;;;;;;;15.07;98.49;96457.14;108859;1276;22556;-89
2023/06/09 00:52:28;;;;;;;14.30;12.80;;;;;;;15.16;98.74;96455.17;108847;1276;22550;-89
2023/06/09 00:55:03;;;;;;;13.90;12.40;;;;;;;15.20;98.59;96451.64;108813;1274;22516;-89
2023/06/09 00:57:39;;;;;;;15.00;13.40;;;;;;;15.21;98.48;96448.52;108729;1269;94659;-89
2023/06/09 01:00:16;;;;;;;14.00;12.60;;;;;;;15.24;98.49;96448.17;108855;1276;22535;-89
2023/06/09 01:02:50;;;;;;;15.00;12.00;;;;;;;15.26;98.38;96449.20;108835;1269;26391;-90
2023/06/09 01:05:25;;;;;;;15.90;13.00;;;;;;;15.22;98.20;96451.33;108847;1276;22543;-89
2023/06/09 01:08:01;;;;;;;13.40;11.90;;;;;;;15.17;98.40;96451.50;108809;1272;43488;-90
2023/06/09 01:10:45;;;;;;;14.20;12.70;;;;;;;15.18;98.61;96453.60;108829;1270;25444;-90
2023/06/09 01:13:32;;;;;;;13.70;12.30;;;;;;;15.23;98.76;96450.42;108808;1276;22528;-90
2023/06/09 01:16:11;;;;;;;14.20;12.30;;;;;;;15.28;98.83;96444.61;108771;1270;22528;-89
2023/06/09 01:18:45;;;;;;;;;;;;;;;15.31;98.80;96439.92;106833;1274;2613900;-89
2023/06/09 01:21:35;;;;;;;14.20;12.10;;;;;;;15.33;98.64;96441.86;108787;1269;25284;-90
2023/06/09 01:24:26;;;;;;;14.80;13.20;;;;;;;15.34;98.66;96438.20;108868;1262;24231;-89
2023/06/09 01:27:14;;;;;;;12.50;11.20;;;;;;;15.35;98.72;96430.63;108798;1274;22542;-89
2023/06/09 01:29:48;;;;;;;13.40;11.30;;;;;;;15.36;98.50;96426.00;108859;1271;22521;-89
2023/06/09 01:32:25;;;;;;;16.60;11.30;;;;;;;15.38;98.45;96421.48;108857;1276;22536;-90
2023/06/09 01:34:57;;;;;;;11.70;10.50;;;;;;;15.38;98.30;96422.90;108878;1276;22602;-89
2023/06/09 01:37:30;;;;;;;11.90;10.70;;;;;;;15.34;97.91;96421.80;108791;1276;59278;-90
2023/06/09 01:40:09;;;;;;;13.00;10.60;;;;;;;15.21;97.33;96417.67;108854;1273;22537;-90
2023/06/09 01:42:41;;;;;;;12.10;10.80;;;;;;;15.01;97.50;96417.95;108836;1276;22580;-89
2023/06/09 01:45:13;;;;;;;13.00;11.60;;;;;;;14.90;98.16;96417.05;108839;1276;22522;-89
2023/06/09 01:47:47;;;;;;;12.90;11.40;;;;;;;14.84;98.80;96421.74;108754;1276;73051;-89
2023/06/09 01:50:33;;;;;;;12.80;11.40;;;;;;;14.83;99.35;96414.71;108837;1276;24355;-89
2023/06/09 01:53:13;;;;;;;13.20;11.80;;;;;;;14.88;99.78;96412.92;108817;1276;23275;-91
2023/06/09 01:55:51;;;;;;;13.50;12.10;;;;;;;14.94;99.80;96418.17;108810;1276;22508;-89
2023/06/09 01:58:29;;;;;;;13.30;11.40;;;;;;;14.97;99.68;96415.35;108776;1269;53689;-89
2023/06/09 02:01:04;;;;;;;12.90;11.50;;;;;;;15.01;99.65;96414.31;108830;1276;22512;-90
2023/06/09 02:03:53;;;;;;;12.00;10.70;;;;;;;15.03;99.45;96409.13;108801;1270;22508;-89
2023/06/09 02:06:27;;;;;;;12.00;10.70;;;;;;;15.02;99.30;96405.36;108845;1273;22516;-89
2023/06/09 02:08:59;;;;;;;11.70;10.50;;;;;;;15.05;99.32;96405.98;108769;1272;60214;-89
2023/06/09 02:11:33;;;;;;;12.00;10.70;;;;;;;15.08;99.22;96406.77;108843;1271;22521;-89
2023/06/09 02:14:09;;;;;;;13.00;10.90;;;;;;;15.10;99.16;96408.31;108768;1273;22519;-89
2023/06/09 02:16:53;;;;;;;12.40;10.40;;;;;;;15.13;99.15;96407.36;108818;1276;24232;-88
2023/06/09 02:19:28;;;;;;;11.90;10.30;;;;;;;15.10;98.89;96406.36;108738;1276;87019;-89
2023/06/09 02:22:02;;;;;;;11.40;10.20;;;;;;;15.07;98.79;96408.87;108709;1276;22526;-89
2023/06/09 02:24:37;;;;;;;12.00;9.70;;;;;;;15.05;98.69;96405.70;108558;1276;370917;-89
2023/06/09 02:27:09;;;;;;;10.80;9.70;;;;;;;15.07;98.83;96400.54;108863;1276;22530;-89
2023/06/09 02:29:41;;;;;;;11.80;10.50;;;;;;;15.07;98.63;96399.58;108723;1269;98474;-89
2023/06/09 02:32:22;;;;;;;13.00;10.80;;;;;;;15.09;98.55;96402.30;108765;1273;22550;-89
2023/06/09 02:34:57;;;;;;;11.80;10.40;;;;;;;15.11;98.67;96400.96;108847;1276;22525;-89
2023/06/09 02:37:31;;;;;;;11.10;10.00;;;;;;;15.10;98.44;96406.95;108791;1273;58092;-89
2023/06/09 02:40:04;;;;;;;10.50;9.40;;;;;;;14.98;98.04;96415.63;108804;1276;23813;-89
2023/06/09 02:42:35;;;;;;;11.90;10.60;;;;;;;14.89;98.32;96416.32;108843;1276;24848;-90
2023/06/09 02:45:10;;;;;;;12.30;11.00;;;;;;;14.85;98.93;96421.43;108829;1276;22566;-89
2023/06/09 02:47:44;;;;;;;11.30;9.90;;;;;;;14.88;99.41;96419.11;108758;1276;81795;-89
2023/06/09 02:50:17;;;;;;;13.40;9.70;;;;;;;14.89;99.46;96424.98;108814;1276;22527;-90
2023/06/09 02:52:49;;;;;;;10.90;9.80;;;;;;;14.88;99.48;96422.66;108801;1276;24221;-89
2023/06/09 02:55:21;;;;;;;10.90;9.80;;;;;;;14.92;99.73;96423.92;108859;1276;25295;-89
2023/06/09 02:57:55;;;;;;;10.20;9.20;;;;;;;14.96;99.76;96423.52;108746;1276;50566;-89
2023/06/09 03:00:31;;;;;;;11.50;10.10;;;;;;;14.92;99.51;96422.33;108778;1276;22528;-89
2023/06/09 03:03:07;;;;;;;12.50;10.00;;;;;;;14.87;99.68;96428.65;108868;1276;22518;-90
2023/06/09 03:05:45;;;;;;;10.10;9.00;;;;;;;14.88;99.84;96428.15;108786;1271;22535;-90
2023/06/09 03:08:16;;;;;;;10.50;9.10;;;;;;;14.76;99.40;96432.52;108814;1270;88764;-91
2023/06/09 03:10:49;;;;;;;10.20;9.00;;;;;;;14.71;99.85;96433.79;108864;1274;22513;-90
2023/06/09 03:13:21;;;;;;;11.10;10.00;;;;;;;14.70;99.96;96435.36;108804;1266;22522;-90
2023/06/09 03:15:55;;;;;;;11.00;9.10;;;;;;;14.66;99.98;96435.10;108875;1276;22521;-89
2023/06/09 03:18:29;;;;;;;12.70;9.90;;;;;;;14.68;100.00;96437.90;108716;1276;69446;-88
2023/06/09 03:21:07;;;;;;;11.40;9.80;;;;;;;14.69;100.00;96434.01;108857;1276;22511;-90
2023/06/09 03:23:44;;;;;;;12.20;9.90;;;;;;;14.69;100.00;96433.48;108808;1276;22526;-89
2023/06/09 03:26:20;;;;;;;11.90;10.70;;;;;;;14.71;100.00;96434.57;108810;1274;22529;-90
2023/06/09 03:28:53;;;;;;;12.00;10.80;;;;;;;14.77;100.00;96434.90;106933;1272;2518882;-90
2023/06/09 03:31:26;;;;;;;12.40;9.90;;;;;;;14.87;100.00;96442.25;108816;1269;25447;-89
2023/06/09 03:33:57;;;;;;;11.20;9.90;;;;;;;14.95;100.00;96443.64;108761;1273;22507;-90
2023/06/09 03:36:29;;;;;;;11.40;10.20;;;;;;;15.01;100.00;96440.47;108836;1276;22516;-90
2023/06/09 03:39:01;;;;;;;10.70;9.60;;;;;;;15.05;100.00;96441.42;108740;1273;64490;-90
2023/06/09 03:41:32;;;;;;;11.20;10.00;;;;;;;15.04;100.00;96444.42;108831;1269;22623;-90
2023/06/09 03:44:14;;;;;;;12.10;10.00;;;;;;;15.00;100.00;96439.52;108834;1269;22588;-90
2023/06/09 03:46:49;;;;;;;12.40;11.10;;;;;;;15.02;100.00;96443.61;108759;1266;22520;-90
2023/06/09 03:49:24;;;;;;;11.00;9.80;;;;;;;15.07;100.00;96443.79;108759;1276;61194;-90
2023/06/09 03:51:55;;;;;;;12.20;11.00;;;;;;;15.16;100.00;96441.54;108824;1276;24207;-90
2023/06/09 03:54:33;;;;;;;14.50;12.30;;;;;;;15.23;100.00;96443.61;108789;1276;22574;-90
2023/06/09 03:57:07;;;;;;;12.50;11.20;;;;;;;15.28;100.00;96440.94;108821;1276;22521;-89
2023/06/09 03:59:39;;;;;;;12.20;10.90;;;;;;;15.33;100.00;96441.16;108760;1276;72003;-89
2023/06/09 04:02:16;;;;;;;12.60;11.30;;;;;;;15.36;100.00;96440.23;108811;1276;22529;-90
2023/06/09 04:04:48;;;;;;;12.60;11.10;;;;;;;15.44;100.00;96443.98;108813;1270;22517;-90
2023/06/09 04:07:21;;;;;;;12.30;11.00;;;;;;;15.54;100.00;96446.22;108870;1276;22536;-89
2023/06/09 04:09:53;;;;;;;13.00;11.60;;;;;;;15.61;100.00;96444.84;108808;1272;22537;-90
2023/06/09 04:12:25;;;;;;;13.60;12.00;;;;;;;15.69;100.00;96444.71;108808;1276;22528;-90
2023/06/09 04:15:06;;;;;;;14.20;12.70;;;;;;;15.73;100.00;96447.63;108823;1276;25293;-90
2023/06/09 04:17:41;;;;;;;13.60;12.20;;;;;;;15.79;100.00;96445.32;108810;1272;43626;-89
2023/06/09 04:20:13;;;;;;;13.30;11.90;;;;;;;15.84;100.00;96448.99;108795;1276;25259;-90
2023/06/09 04:22:51;;;;;;;13.40;12.10;;;;;;;15.88;100.00;96444.20;108805;1276;22570;-90
2023/06/09 04:25:29;;;;;;;13.70;11.80;;;;;;;15.87;100.00;96445.58;108816;1266;23138;-91
2023/06/09 04:28:23;;;;;;;12.80;11.40;;;;;;;15.90;100.00;96448.11;108686;1276;131147;-91
2023/06/09 04:31:00;;;;;;;13.40;11.90;;;;;;;15.95;100.00;96445.34;108806;1271;22799;-91
2023/06/09 04:33:36;;;;;;;13.20;11.90;;;;;;;15.98;100.00;96439.60;108816;1276;25513;-90
2023/06/09 04:36:12;;;;;;;14.40;12.90;;;;;;;16.05;100.00;96433.02;108807;1276;22572;-90
2023/06/09 04:38:46;;;;;;;13.20;11.80;;;;;;;16.15;100.00;96434.73;108788;1276;61805;-89
2023/06/09 04:41:17;;;;;;;14.00;12.60;;;;;;;16.23;100.00;96433.39;108803;1273;22524;-90
2023/06/09 04:43:53;;;;;;;14.30;12.80;;;;;;;16.29;100.00;96434.38;108778;1274;22535;-90
2023/06/09 04:46:38;;;;;;;13.90;12.40;;;;;;;16.35;100.00;96433.13;108803;1276;22542;-90
2023/06/09 04:49:11;;;;;;;13.40;12.10;;;;;;;16.42;100.00;96432.02;108777;1276;52202;-90
2023/06/09 04:51:46;;;;;;;14.20;12.10;;;;;;;16.50;100.00;96432.54;108816;1272;22533;-90
2023/06/09 04:54:25;;;;;;;13.20;11.90;;;;;;;16.58;100.00;96430.80;108807;1276;22541;-89
2023/06/09 04:57:03;;;;;;;12.20;11.00;;;;;;;16.70;100.00;96434.46;108825;1273;22530;-90
2023/06/09 04:59:37;;;;;;;11.40;10.20;;;;;;;16.76;100.00;96434.36;108773;1273;52727;-89
2023/06/09 05:02:15;;;;;;;12.20;11.00;;;;;;;16.77;100.00;96435.23;108854;1270;24343;-89
2023/06/09 05:04:48;;;;;;;12.20;10.90;;;;;;;16.73;100.00;96440.28;108796;1270;22545;-89
2023/06/09 05:07:20;;;;;;;12.60;11.30;;;;;;;16.78;100.00;96439.89;108808;1272;25276;-89
2023/06/09 05:09:51;;;;;;;12.40;11.10;;;;;;;16.87;100.00;96441.45;108804;1273;22521;-89
2023/06/09 05:12:23;;;;;;;13.00;11.80;;;;;;;16.95;100.00;96436.25;108679;1274;22530;-89
2023/06/09 05:14:54;;;;;;;12.00;10.90;;;;;;;17.03;100.00;96433.44;108762;1276;22619;-89
2023/06/09 05:17:27;;;;;;;12.00;10.30;;;;;;;17.14;100.00;96431.78;108745;1276;62099;-89
2023/06/09 05:20:06;;;;;;;12.60;11.30;;;;;;;17.24;100.00;96432.99;108792;1273;22700;-89
2023/06/09 05:22:40;;;;;;;12.30;11.10;;;;;;;17.33;100.00;96434.30;108783;1276;22524;-89
2023/06/09 05:25:14;;;;;;;12.70;11.50;;;;;;;17.50;100.00;96438.97;108811;1274;22953;-89
2023/06/09 05:27:49;;;;;;;13.00;11.60;;;;;;;17.70;100.00;96441.58;108697;1276;94792;-90
2023/06/09 05:30:23;;;;;;;10.90;9.80;;;;;;;17.99;100.00;96438.77;108758;1274;25369;-89
2023/06/09 05:33:01;;;;;;;12.00;10.80;;;;;;;18.26;100.00;96440.40;108820;1276;22528;-89
2023/06/09 05:35:36;;;;;;;11.90;10.80;;;;;;;18.61;100.00;96439.81;108781;1273;22555;-90
2023/06/09 05:38:12;;;;;;;11.50;10.40;;;;;;;18.93;99.44;96438.35;108758;1276;109565;-91
2023/06/09 05:40:53;;;;;;;12.30;11.00;;;;;;;19.07;97.74;96441.84;108795;1273;22530;-89
2023/06/09 05:43:29;;;;;;;12.10;10.80;;;;;;;19.50;99.52;96438.54;108768;1274;22527;-89
2023/06/09 05:46:05;;;;;;;12.00;10.70;;;;;;;21.25;100.00;96438.71;108778;1273;24251;-89
2023/06/09 05:48:40;;;;;;;11.00;9.90;;;;;;;23.43;99.95;96436.29;106635;1276;2664781;-89
2023/06/09 05:51:12;;;;;;;10.10;9.10;;;;;;;25.35;96.22;96433.30;108796;1273;22518;-90
2023/06/09 05:53:51;;;;;;;10.50;9.40;;;;;;;26.88;91.58;96431.75;108786;1269;22532;-89
2023/06/09 05:56:37;;;;;;;8.90;8.00;;;;;;;28.44;87.67;96438.92;108694;1269;22527;-88
2023/06/09 05:59:12;;;;;;;9.70;8.80;;;;;;;29.79;82.68;96436.73;108682;1273;103559;-89
2023/06/09 06:01:45;;;;;;;9.30;8.40;;;;;;;30.62;76.42;96435.02;108777;1273;22532;-88
2023/06/09 06:04:18;;;;;;;8.70;7.90;;;;;;;30.20;70.73;96440.78;108762;1276;22535;-88
2023/06/09 06:06:58;;;;;;;7.80;7.10;;;;;;;28.67;68.03;96444.23;108757;1274;22552;-89
2023/06/09 06:09:34;;;;;;;8.90;8.00;;;;;;;26.92;66.94;96445.52;108724;1273;69657;-88
2023/06/09 06:12:17;;;;;;;9.20;8.30;;;;;;;25.73;68.22;96445.17;108722;1276;25413;-89
2023/06/09 06:14:49;;;;;;;8.30;7.60;;;;;;;25.11;68.45;96448.34;108756;1272;25583;-89
2023/06/09 06:17:34;;;;;;;8.20;7.40;;;;;;;24.61;69.19;96452.70;108695;1276;60877;-89
2023/06/09 06:20:17;;;;;;;8.20;7.40;;;;;;;24.06;69.09;96449.84;108783;1269;23734;-88
2023/06/09 06:23:02;;;;;;;9.10;8.20;;;;;;;23.48;69.90;96445.52;108778;1274;22519;-88
2023/06/09 06:25:36;;;;;;;8.50;7.70;;;;;;;23.20;70.90;96447.44;108676;1276;22542;-87
2023/06/09 06:28:13;;;;;;;8.70;7.80;;;;;;;23.69;74.08;96450.52;106954;1270;2448903;-89
2023/06/09 06:30:54;;;;;;;9.40;8.20;;;;;;;25.56;74.95;96447.52;108734;1276;22641;-89
2023/06/09 06:33:31;;;;;;;8.90;7.60;;;;;;;27.36;73.28;96446.75;108771;1273;22534;-89
2023/06/09 06:36:21;;;;;;;9.80;7.30;;;;;;;28.43;70.21;96447.83;108730;1276;22541;-89
2023/06/09 06:39:12;;;;;;;8.90;8.00;;;;;;;29.05;66.10;96445.09;107113;1276;2149231;-88
2023/06/09 06:42:10;;;;;;;7.80;7.10;;;;;;;29.11;63.91;96444.18;108743;1276;22528;-90
2023/06/09 06:44:56;;;;;;;10.10;7.80;;;;;;;29.30;63.44;96446.75;108766;1276;22603;-90
2023/06/09 06:47:30;;;;;;;9.40;7.60;;;;;;;29.23;62.35;96447.98;108758;1276;22526;-90
2023/06/09 06:50:59;;;;;;;9.80;8.00;;;;;;;28.94;60.70;96451.26;108750;1270;24279;-91
2023/06/09 06:54:00;;;;;;;7.60;6.80;;;;;;;28.08;60.02;96456.95;108749;1273;22523;-90
2023/06/09 07:04:03;;;;;;;;;;;;;;;;;;;;;
2023/06/09 07:10:54;;;;;;;8.10;7.20;;;;;;;27.13;61.36;96448.90;106317;1273;2491211;-91
2023/06/09 07:14:57;;;;;;;;;;;;;;;;;;;;;
2023/06/09 07:21:35;;;;;;;;;;;;;;;;;;;;;
2023/06/09 07:28:59;;;;;;;;;;;;;;;;;;;;;
2023/06/09 07:36:10;;;;;;;;;;;;;;;;;;;;;
2023/06/09 07:42:44;;;;;;;8.00;7.10;;;;;;;27.53;58.93;96453.27;108728;1276;25477;-92
2023/06/09 07:45:53;;;;;;;;;;;;;;;;;;;;;
2023/06/09 07:48:37;;;;;;;10.00;8.00;;;;;;;27.78;59.26;96446.93;108785;1276;25322;-92
2023/06/09 07:51:28;;;;;;;8.60;7.70;;;;;;;27.81;58.29;96442.57;108842;1273;26468;-92
2023/06/09 07:54:22;;;;;;;8.90;8.00;;;;;;;27.83;58.00;96439.91;108845;1273;22599;-91
2023/06/09 07:56:56;;;;;;;8.00;7.20;;;;;;;27.39;57.33;96440.55;108832;1266;22659;-94
2023/06/09 07:59:28;;;;;;;8.20;7.50;;;;;;;27.07;57.73;96438.70;108797;1276;71680;-92
2023/06/09 08:01:59;;;;;;;9.40;8.20;;;;;;;26.53;57.68;96436.55;108892;1269;22541;-90
2023/06/09 08:04:34;;;;;;;8.10;7.30;;;;;;;25.90;58.04;96438.67;108820;1271;22526;-91
2023/06/09 08:07:09;;;;;;;9.00;8.10;;;;;;;25.56;59.72;96437.16;108823;1271;25331;-92
2023/06/09 08:09:45;;;;;;;9.00;8.10;;;;;;;25.86;60.81;96437.96;108679;1276;70054;-92
2023/06/09 08:12:18;;;;;;;9.00;8.10;;;;;;;26.06;60.57;96434.02;108762;1276;22595;-92
2023/06/09 08:14:52;;;;;;;8.70;7.90;;;;;;;26.22;60.79;96432.58;108765;1276;22521;-90
2023/06/09 08:17:28;;;;;;;9.90;8.50;;;;;;;26.27;60.42;96432.52;108763;1269;22536;-92
2023/06/09 08:20:05;;;;;;;8.50;7.70;;;;;;;26.34;60.17;96428.66;108696;1269;74222;-92
2023/06/09 08:22:41;;;;;;;11.90;7.90;;;;;;;26.31;59.57;96430.61;108755;1276;22556;-92
2023/06/09 08:25:16;;;;;;;8.70;7.50;;;;;;;25.96;59.83;96439.09;108780;1269;22563;-93
2023/06/09 08:27:48;;;;;;;8.40;7.50;;;;;;;25.78;59.77;96430.55;108764;1269;22533;-92
2023/06/09 08:30:19;;;;;;;8.70;7.70;;;;;;;25.48;60.54;96425.33;108689;1276;79806;-93
2023/06/09 08:32:55;;;;;;;8.30;7.50;;;;;;;25.38;61.23;96422.88;108738;1276;22545;-92
2023/06/09 08:35:32;;;;;;;8.20;7.40;;;;;;;25.23;61.05;96424.17;108781;1276;22540;-92
2023/06/09 08:38:08;;;;;;;8.60;7.70;;;;;;;24.98;61.20;96422.90;108733;1276;22573;-92
2023/06/09 08:40:42;;;;;;;9.10;8.20;;;;;;;24.76;61.76;96426.50;108687;1269;62363;-94
2023/06/09 08:43:14;;;;;;;10.10;9.10;;;;;;;24.67;62.60;96423.56;108742;1269;22529;-91
2023/06/09 08:45:53;;;;;;;11.40;9.50;;;;;;;24.69;63.14;96422.57;108735;1260;22528;-91
2023/06/09 08:48:28;;;;;;;10.00;8.90;;;;;;;24.74;63.69;96420.90;108769;1273;26590;-90
2023/06/09 08:51:05;;;;;;;10.70;9.10;;;;;;;24.79;63.78;96417.02;108777;1276;22567;-93
2023/06/09 08:53:38;;;;;;;9.60;8.60;;;;;;;24.84;63.96;96415.72;108753;1270;22530;-91
2023/06/09 08:56:15;;;;;;;11.60;8.30;;;;;;;24.96;64.62;96415.66;108789;1276;22527;-91
2023/06/09 08:58:56;;;;;;;9.50;8.50;;;;;;;24.91;63.55;96417.33;104751;1267;5257345;-91
2023/06/09 09:01:31;;;;;;;10.40;9.00;;;;;;;24.62;63.53;96415.77;108716;1269;22554;-93
2023/06/09 09:04:03;;;;;;;9.70;8.70;;;;;;;24.34;63.84;96416.42;108896;1273;25287;-91
2023/06/09 09:06:45;;;;;;;8.90;8.00;;;;;;;24.21;64.03;96416.73;108819;1275;25286;-91
2023/06/09 09:09:21;;;;;;;9.00;8.10;;;;;;;24.11;64.44;96417.41;108684;1276;98306;-92
2023/06/09 09:12:00;;;;;;;9.70;8.80;;;;;;;23.97;64.52;96417.95;108747;1266;22522;-92
2023/06/09 09:14:33;;;;;;;9.90;9.00;;;;;;;23.77;64.85;96408.11;108752;1276;22531;-91
2023/06/09 09:17:14;;;;;;;9.90;8.90;;;;;;;23.57;65.05;96407.46;108741;1270;22528;-92
2023/06/09 09:19:49;;;;;;;10.90;9.30;;;;;;;23.34;65.42;96409.46;108670;1270;91359;-92
2023/06/09 09:22:25;;;;;;;10.00;8.90;;;;;;;23.15;65.50;96405.33;108722;1276;25353;-90
2023/06/09 09:25:02;;;;;;;10.60;9.60;;;;;;;22.99;66.06;96399.84;108740;1276;22536;-92
2023/06/09 09:27:37;;;;;;;10.80;9.70;;;;;;;22.88;66.44;96401.67;108729;1276;22634;-93
2023/06/09 09:30:55;;;;;;;10.10;9.10;;;;;;;22.84;67.34;96399.77;107056;1272;2202434;-92
2023/06/09 09:33:34;;;;;;;11.00;10.00;;;;;;;22.88;67.73;96395.41;108740;1265;22545;-91
2023/06/09 09:36:10;;;;;;;11.30;10.20;;;;;;;22.87;67.88;96391.93;108766;1276;22703;-90
2023/06/09 09:38:49;;;;;;;11.90;10.80;;;;;;;22.99;68.85;96386.70;108778;1276;25377;-91
2023/06/09 09:41:25;;;;;;;11.90;10.80;;;;;;;23.08;69.25;96382.04;105437;1269;3018778;-91
2023/06/09 09:44:03;;;;;;;11.10;10.00;;;;;;;23.04;68.70;96380.44;108860;1275;22516;-91
2023/06/09 09:46:43;;;;;;;12.20;11.10;;;;;;;23.04;69.11;96377.03;108917;1272;22553;-90
2023/06/09 09:49:27;;;;;;;11.60;10.50;;;;;;;23.13;69.49;96372.54;108777;1268;86840;-91
2023/06/09 09:52:10;;;;;;;11.50;10.50;;;;;;;23.17;69.30;96373.90;108947;1275;22640;-91
2023/06/09 09:54:53;;;;;;;13.70;12.00;;;;;;;23.11;69.14;96375.67;108914;1275;22547;-92
2023/06/09 09:57:29;;;;;;;12.60;11.40;;;;;;;22.96;68.97;96373.61;108781;1275;22541;-90
2023/06/09 10:00:12;;;;;;;12.70;11.50;;;;;;;22.86;68.88;96376.70;108849;1275;53210;-92
2023/06/09 10:02:53;;;;;;;12.10;10.90;;;;;;;22.77;69.26;96380.48;108926;1268;26613;-91
2023/06/09 10:05:32;;;;;;;12.90;11.70;;;;;;;22.69;69.73;96382.66;108888;1275;25331;-90
2023/06/09 10:08:23;;;;;;;13.80;12.20;;;;;;;22.64;70.03;96378.09;108904;1271;24232;-90
2023/06/09 10:11:02;;;;;;;12.50;11.30;;;;;;;22.59;70.08;96374.08;108861;1275;77161;-91
2023/06/09 10:13:38;;;;;;;13.00;11.70;;;;;;;22.54;70.17;96368.05;108758;1275;22531;-91
2023/06/09 10:16:12;;;;;;;14.60;13.20;;;;;;;22.51;70.57;96359.27;108947;1272;22540;-91
2023/06/09 10:18:50;;;;;;;13.40;12.10;;;;;;;22.50;70.83;96354.17;108919;1272;22656;-91
2023/06/09 10:21:26;;;;;;;14.10;12.60;;;;;;;22.59;71.59;96345.91;108837;1269;72868;-90
2023/06/09 10:24:06;;;;;;;12.70;11.50;;;;;;;22.72;71.58;96350.66;108944;1275;24387;-91
2023/06/09 10:26:40;;;;;;;12.60;11.50;;;;;;;22.78;71.26;96354.23;108942;1275;22533;-91
2023/06/09 10:29:19;;;;;;;11.50;10.40;;;;;;;22.76;71.02;96356.59;108950;1271;41316;-91
2023/06/09 10:32:07;;;;;;;13.60;12.40;;;;;;;22.68;70.70;96357.09;108934;1275;22661;-91
2023/06/09 10:34:51;;;;;;;13.40;12.20;;;;;;;22.54;70.75;96357.55;108930;1269;25419;-91
2023/06/09 10:37:41;;;;;;;13.40;11.60;;;;;;;22.40;70.80;96360.34;108957;1275;24317;-91
2023/06/09 10:40:26;;;;;;;13.30;12.00;;;;;;;22.25;70.79;96366.41;108911;1269;60918;-90
2023/06/09 10:43:18;;;;;;;12.30;11.20;;;;;;;22.06;70.61;96368.06;108893;1271;22557;-91
2023/06/09 10:45:58;;;;;;;14.20;12.90;;;;;;;21.90;71.35;96373.92;108867;1269;26531;-90
2023/06/09 10:48:50;;;;;;;14.30;12.70;;;;;;;21.81;71.72;96371.67;108861;1272;22570;-91
2023/06/09 10:51:44;;;;;;;13.50;12.10;;;;;;;21.77;71.98;96374.83;108779;1268;22574;-90
2023/06/09 10:54:36;;;;;;;;;;;;;;;21.71;72.18;96369.39;108822;1270;22495;-91
2023/06/09 10:57:41;;;;;;;16.70;15.10;;;;;;;21.64;72.69;96370.02;108660;1276;22534;-90
2023/06/09 11:00:23;;;;;;;15.30;13.90;;;;;;;21.53;72.96;96371.04;108735;1268;114365;-91
2023/06/09 11:03:35;;;;;;;15.50;13.90;;;;;;;21.46;73.07;96370.36;108760;1270;22564;-90
2023/06/09 11:06:07;;;;;;;16.80;15.00;;;;;;;21.35;73.24;96380.68;108830;1276;22576;-89
2023/06/09 11:09:15;;;;;;;17.40;15.60;;;;;;;21.26;73.51;96378.40;108813;1276;22517;-90
2023/06/09 11:11:57;;;;;;;19.10;14.60;;;;;;;21.16;73.66;96381.86;108920;1274;22569;-89
2023/06/09 11:14:56;;;;;;;19.40;15.30;;;;;;;21.04;74.35;96379.06;108952;1275;22942;-92
2023/06/09 11:17:39;;;;;;;18.90;16.20;;;;;;;20.94;75.16;96372.98;108966;1268;25128;-91
2023/06/09 11:20:17;;;;;;;21.40;17.30;;;;;;;20.83;76.03;96372.71;108919;1269;73579;-92
2023/06/09 11:23:21;;;;;;;21.40;18.90;;;;;;;20.72;76.56;96379.17;108927;1275;22550;-92
2023/06/09 11:25:58;;;;;;;21.50;18.80;;;;;;;20.64;77.31;96380.36;109060;1272;22557;-93
2023/06/09 11:28:47;;;;;;;21.80;19.60;;;;;;;20.57;77.76;96377.03;108979;1271;22548;-90
2023/06/09 11:31:48;;;;;;;21.80;19.00;;;;;;;20.48;78.13;96379.73;109033;1269;45975;-92
2023/06/09 11:34:55;;;;;;;22.30;19.90;;;;;;;20.37;78.57;96382.73;109058;1273;22563;-90
2023/06/09 11:37:36;;;;;;;21.30;19.10;;;;;;;20.29;78.96;96384.77;108711;1274;25271;-93
2023/06/09 11:40:14;;;;;;;21.00;18.70;;;;;;;20.26;79.26;96389.52;107453;1275;1989257;-92
2023/06/09 11:42:50;;;;;;;20.10;18.10;;;;;;;20.22;79.71;96396.74;109107;1275;23074;-91
2023/06/09 11:45:30;;;;;;;19.20;17.30;;;;;;;20.22;79.99;96406.05;108859;1257;22534;-91
2023/06/09 11:48:12;;;;;;;22.90;20.50;;;;;;;20.26;79.99;96409.21;108925;1275;22530;-93
2023/06/09 11:50:50;;;;;;;22.30;20.00;;;;;;;20.30;79.83;96408.72;108879;1268;74308;-92
2023/06/09 11:53:30;;;;;;;24.80;22.30;;;;;;;20.32;80.03;96410.16;109011;1275;22530;-92
2023/06/09 11:56:09;;;;;;;16.10;14.60;;;;;;;20.36;80.24;96407.00;108954;1268;22542;-92
2023/06/09 11:58:47;;;;;;;18.90;17.10;;;;;;;20.37;79.97;96407.73;108917;1275;22550;-92
2023/06/09 12:01:21;;;;;;;13.10;11.70;;;;;;;20.24;80.36;96412.55;108928;1274;121102;-92
2023/06/09 12:03:53;;;;;;;11.10;9.70;;;;;;;19.98;79.91;96411.80;108786;1252;22542;-92
2023/06/09 12:06:36;;;;;;;11.60;8.60;;;;;;;19.80;79.76;96414.30;109028;1271;22517;-92
2023/06/09 12:09:26;;;;;;;8.80;8.00;;;;;;;19.60;79.97;96411.35;108956;1269;22558;-92
2023/06/09 12:11:59;;;;;;;11.10;7.70;;;;;;;19.58;80.52;96407.62;108855;1276;22645;-93
2023/06/09 12:14:35;;;;;;;14.60;8.30;;;;;;;19.62;80.70;96405.05;108720;1276;22644;-92
2023/06/09 12:17:11;;;;;;;11.50;8.40;;;;;;;19.64;80.49;96401.09;108823;1273;22524;-92
2023/06/09 12:19:44;;;;;;;11.70;9.30;;;;;;;19.67;80.96;96398.16;108743;1275;65462;-93
2023/06/09 12:22:21;;;;;;;10.30;8.30;;;;;;;19.67;81.10;96392.96;108902;1276;24244;-92
2023/06/09 12:24:54;;;;;;;11.30;10.20;;;;;;;19.63;81.46;96394.55;108860;1273;22558;-93
2023/06/09 12:27:28;;;;;;;11.40;10.20;;;;;;;19.55;81.15;96396.29;108881;1276;22533;-93
2023/06/09 12:30:04;;;;;;;11.90;10.60;;;;;;;19.31;81.26;96394.49;108780;1268;50579;-92
2023/06/09 12:32:38;;;;;;;11.30;10.10;;;;;;;19.20;81.86;96397.02;108882;1276;22527;-93
2023/06/09 12:35:16;;;;;;;11.30;9.90;;;;;;;19.14;82.48;96399.14;108911;1276;24450;-92
2023/06/09 12:37:49;;;;;;;9.00;8.10;;;;;;;19.13;82.57;96400.63;108877;1270;22521;-93
2023/06/09 12:40:29;;;;;;;9.40;7.50;;;;;;;19.02;82.22;96396.17;108909;1275;90906;-92